sensor_id;sensor_type;location;lat;lon;timestamp;P1;durP1;ratioP1;P2;durP2;ratioP2
51288;SDS011;37372;52.294;5.152;2024-02-04T00:01:31;10.23;;;3.40;;
51288;SDS011;37372;52.294;5.152;2024-02-04T00:03:59;8.73;;;2.80;;
51288;SDS011;37372;52.294;5.152;2024-02-04T00:06:24;6.35;;;2.80;;
51288;SDS011;37372;52.294;5.152;2024-02-04T00:08:50;8.83;;;3.00;;
51288;SDS011;37372;52.294;5.152;2024-02-04T00:11:15;5.80;;;2.80;;
51288;SDS011;37372;52.294;5.152;2024-02-04T00:13:42;7.25;;;2.97;;
51288;SDS011;37372;52.294;5.152;2024-02-04T00:16:08;6.30;;;2.93;;
51288;SDS011;37372;52.294;5.152;2024-02-04T00:18:36;8.00;;;3.20;;
51288;SDS011;37372;52.294;5.152;2024-02-04T00:21:11;9.48;;;3.80;;
51288;SDS011;37372;52.294;5.152;2024-02-04T00:23:36;11.10;;;4.30;;
51288;SDS011;37372;52.294;5.152;2024-02-04T00:26:02;10.90;;;4.90;;
51288;SDS011;37372;52.294;5.152;2024-02-04T00:28:27;9.60;;;5.38;;
51288;SDS011;37372;52.294;5.152;2024-02-04T00:30:53;13.70;;;6.43;;
51288;SDS011;37372;52.294;5.152;2024-02-04T00:33:21;12.88;;;7.47;;
51288;SDS011;37372;52.294;5.152;2024-02-04T00:35:47;19.58;;;10.20;;
51288;SDS011;37372;52.294;5.152;2024-02-04T00:38:16;19.70;;;8.70;;
51288;SDS011;37372;52.294;5.152;2024-02-04T00:40:42;19.60;;;8.93;;
51288;SDS011;37372;52.294;5.152;2024-02-04T00:43:08;21.63;;;8.60;;
51288;SDS011;37372;52.294;5.152;2024-02-04T00:45:34;25.20;;;9.63;;
51288;SDS011;37372;52.294;5.152;2024-02-04T00:48:00;23.13;;;9.55;;
51288;SDS011;37372;52.294;5.152;2024-02-04T00:50:26;23.23;;;9.40;;
51288;SDS011;37372;52.294;5.152;2024-02-04T00:52:52;24.10;;;8.52;;
51288;SDS011;37372;52.294;5.152;2024-02-04T00:55:20;31.50;;;9.45;;
51288;SDS011;37372;52.294;5.152;2024-02-04T00:57:45;23.37;;;8.83;;
51288;SDS011;37372;52.294;5.152;2024-02-04T01:00:11;27.73;;;8.20;;
51288;SDS011;37372;52.294;5.152;2024-02-04T01:02:38;24.50;;;7.60;;
51288;SDS011;37372;52.294;5.152;2024-02-04T01:05:07;25.23;;;7.95;;
51288;SDS011;37372;52.294;5.152;2024-02-04T01:07:36;19.92;;;6.32;;
51288;SDS011;37372;52.294;5.152;2024-02-04T01:10:02;22.20;;;5.82;;
51288;SDS011;37372;52.294;5.152;2024-02-04T01:12:28;21.80;;;5.73;;
51288;SDS011;37372;52.294;5.152;2024-02-04T01:14:53;23.88;;;5.35;;
51288;SDS011;37372;52.294;5.152;2024-02-04T01:17:19;21.10;;;5.20;;
51288;SDS011;37372;52.294;5.152;2024-02-04T01:19:44;22.30;;;5.30;;
51288;SDS011;37372;52.294;5.152;2024-02-04T01:22:12;12.50;;;4.88;;
51288;SDS011;37372;52.294;5.152;2024-02-04T01:24:38;11.23;;;4.87;;
51288;SDS011;37372;52.294;5.152;2024-02-04T01:27:04;12.32;;;4.88;;
51288;SDS011;37372;52.294;5.152;2024-02-04T01:29:30;12.43;;;3.95;;
51288;SDS011;37372;52.294;5.152;2024-02-04T01:31:56;12.13;;;4.70;;
51288;SDS011;37372;52.294;5.152;2024-02-04T01:34:22;14.95;;;4.20;;
51288;SDS011;37372;52.294;5.152;2024-02-04T01:36:47;15.90;;;4.50;;
51288;SDS011;37372;52.294;5.152;2024-02-04T01:39:13;13.65;;;4.00;;
51288;SDS011;37372;52.294;5.152;2024-02-04T01:41:42;17.30;;;3.78;;
51288;SDS011;37372;52.294;5.152;2024-02-04T01:44:10;11.00;;;3.67;;
51288;SDS011;37372;52.294;5.152;2024-02-04T01:46:35;11.77;;;3.53;;
51288;SDS011;37372;52.294;5.152;2024-02-04T01:49:01;13.47;;;4.00;;
51288;SDS011;37372;52.294;5.152;2024-02-04T01:51:30;15.75;;;4.10;;
51288;SDS011;37372;52.294;5.152;2024-02-04T01:53:55;10.38;;;4.00;;
51288;SDS011;37372;52.294;5.152;2024-02-04T01:56:21;15.03;;;3.80;;
51288;SDS011;37372;52.294;5.152;2024-02-04T01:58:46;9.00;;;3.10;;
51288;SDS011;37372;52.294;5.152;2024-02-04T02:01:13;11.05;;;3.75;;
51288;SDS011;37372;52.294;5.152;2024-02-04T02:03:42;14.90;;;3.70;;
51288;SDS011;37372;52.294;5.152;2024-02-04T02:06:08;11.47;;;3.43;;
51288;SDS011;37372;52.294;5.152;2024-02-04T02:08:33;9.77;;;3.67;;
51288;SDS011;37372;52.294;5.152;2024-02-04T02:11:04;13.97;;;3.10;;
51288;SDS011;37372;52.294;5.152;2024-02-04T02:13:40;10.02;;;2.80;;
51288;SDS011;37372;52.294;5.152;2024-02-04T02:16:13;10.98;;;2.60;;
51288;SDS011;37372;52.294;5.152;2024-02-04T02:18:44;9.68;;;2.85;;
51288;SDS011;37372;52.294;5.152;2024-02-04T02:23:54;7.43;;;2.60;;
51288;SDS011;37372;52.294;5.152;2024-02-04T02:26:43;9.13;;;2.40;;
51288;SDS011;37372;52.294;5.152;2024-02-04T02:29:09;10.10;;;2.88;;
51288;SDS011;37372;52.294;5.152;2024-02-04T02:31:36;11.80;;;2.43;;
51288;SDS011;37372;52.294;5.152;2024-02-04T02:34:03;13.77;;;2.70;;
51288;SDS011;37372;52.294;5.152;2024-02-04T02:36:29;14.82;;;2.70;;
51288;SDS011;37372;52.294;5.152;2024-02-04T02:39:00;11.85;;;3.00;;
51288;SDS011;37372;52.294;5.152;2024-02-04T02:41:42;10.27;;;3.03;;
51288;SDS011;37372;52.294;5.152;2024-02-04T02:44:11;10.05;;;3.00;;
51288;SDS011;37372;52.294;5.152;2024-02-04T02:46:38;8.60;;;2.88;;
51288;SDS011;37372;52.294;5.152;2024-02-04T02:49:07;13.23;;;3.20;;
51288;SDS011;37372;52.294;5.152;2024-02-04T02:51:33;8.53;;;3.23;;
51288;SDS011;37372;52.294;5.152;2024-02-04T02:53:58;8.43;;;3.17;;
51288;SDS011;37372;52.294;5.152;2024-02-04T02:56:26;14.37;;;3.63;;
51288;SDS011;37372;52.294;5.152;2024-02-04T02:58:52;11.68;;;2.92;;
51288;SDS011;37372;52.294;5.152;2024-02-04T03:01:20;10.37;;;3.50;;
51288;SDS011;37372;52.294;5.152;2024-02-04T03:03:45;9.80;;;3.17;;
51288;SDS011;37372;52.294;5.152;2024-02-04T03:06:11;11.73;;;3.50;;
51288;SDS011;37372;52.294;5.152;2024-02-04T03:08:36;12.32;;;3.60;;
51288;SDS011;37372;52.294;5.152;2024-02-04T03:11:02;12.27;;;3.87;;
51288;SDS011;37372;52.294;5.152;2024-02-04T03:13:28;13.75;;;4.30;;
51288;SDS011;37372;52.294;5.152;2024-02-04T03:15:55;12.98;;;4.95;;
51288;SDS011;37372;52.294;5.152;2024-02-04T03:18:20;14.83;;;5.50;;
51288;SDS011;37372;52.294;5.152;2024-02-04T03:20:46;14.50;;;5.00;;
51288;SDS011;37372;52.294;5.152;2024-02-04T03:23:11;17.73;;;5.03;;
51288;SDS011;37372;52.294;5.152;2024-02-04T03:25:40;12.48;;;5.07;;
51288;SDS011;37372;52.294;5.152;2024-02-04T03:28:06;19.30;;;5.45;;
51288;SDS011;37372;52.294;5.152;2024-02-04T03:30:32;19.10;;;4.77;;
51288;SDS011;37372;52.294;5.152;2024-02-04T03:32:58;12.55;;;4.47;;
51288;SDS011;37372;52.294;5.152;2024-02-04T03:35:24;14.30;;;4.45;;
51288;SDS011;37372;52.294;5.152;2024-02-04T03:37:49;12.93;;;4.83;;
51288;SDS011;37372;52.294;5.152;2024-02-04T03:40:15;15.02;;;4.10;;
51288;SDS011;37372;52.294;5.152;2024-02-04T03:42:49;12.35;;;4.13;;
51288;SDS011;37372;52.294;5.152;2024-02-04T03:45:15;11.90;;;3.83;;
51288;SDS011;37372;52.294;5.152;2024-02-04T03:47:41;13.10;;;3.50;;
51288;SDS011;37372;52.294;5.152;2024-02-04T03:50:06;9.32;;;3.10;;
51288;SDS011;37372;52.294;5.152;2024-02-04T03:52:32;12.73;;;2.80;;
51288;SDS011;37372;52.294;5.152;2024-02-04T03:54:58;9.05;;;2.90;;
51288;SDS011;37372;52.294;5.152;2024-02-04T03:57:24;6.85;;;2.20;;
51288;SDS011;37372;52.294;5.152;2024-02-04T03:59:49;9.07;;;2.20;;
51288;SDS011;37372;52.294;5.152;2024-02-04T04:02:15;10.27;;;2.90;;
51288;SDS011;37372;52.294;5.152;2024-02-04T04:04:40;9.33;;;1.97;;
51288;SDS011;37372;52.294;5.152;2024-02-04T04:07:12;9.90;;;2.15;;
51288;SDS011;37372;52.294;5.152;2024-02-04T04:09:38;8.80;;;2.00;;
51288;SDS011;37372;52.294;5.152;2024-02-04T04:12:10;10.80;;;2.13;;
51288;SDS011;37372;52.294;5.152;2024-02-04T04:14:35;10.47;;;2.13;;
51288;SDS011;37372;52.294;5.152;2024-02-04T04:17:01;5.07;;;1.50;;
51288;SDS011;37372;52.294;5.152;2024-02-04T04:19:27;8.38;;;2.30;;
51288;SDS011;37372;52.294;5.152;2024-02-04T04:21:52;7.97;;;2.00;;
51288;SDS011;37372;52.294;5.152;2024-02-04T04:24:19;6.33;;;1.70;;
51288;SDS011;37372;52.294;5.152;2024-02-04T04:26:47;10.75;;;1.90;;
51288;SDS011;37372;52.294;5.152;2024-02-04T04:29:13;8.07;;;1.70;;
51288;SDS011;37372;52.294;5.152;2024-02-04T04:31:38;6.87;;;1.80;;
51288;SDS011;37372;52.294;5.152;2024-02-04T04:34:03;11.13;;;2.00;;
51288;SDS011;37372;52.294;5.152;2024-02-04T04:36:29;6.80;;;1.47;;
51288;SDS011;37372;52.294;5.152;2024-02-04T04:38:55;9.67;;;1.80;;
51288;SDS011;37372;52.294;5.152;2024-02-04T04:41:20;9.07;;;1.77;;
51288;SDS011;37372;52.294;5.152;2024-02-04T04:43:45;6.63;;;1.70;;
51288;SDS011;37372;52.294;5.152;2024-02-04T04:46:17;13.57;;;2.03;;
51288;SDS011;37372;52.294;5.152;2024-02-04T04:48:43;8.13;;;1.77;;
51288;SDS011;37372;52.294;5.152;2024-02-04T04:51:08;13.18;;;2.60;;
51288;SDS011;37372;52.294;5.152;2024-02-04T04:53:37;7.57;;;2.20;;
51288;SDS011;37372;52.294;5.152;2024-02-04T04:56:03;8.35;;;1.90;;
51288;SDS011;37372;52.294;5.152;2024-02-04T04:58:29;12.77;;;2.30;;
51288;SDS011;37372;52.294;5.152;2024-02-04T05:00:54;8.80;;;2.25;;
51288;SDS011;37372;52.294;5.152;2024-02-04T05:03:19;12.73;;;2.37;;
51288;SDS011;37372;52.294;5.152;2024-02-04T05:05:45;15.10;;;2.63;;
51288;SDS011;37372;52.294;5.152;2024-02-04T05:08:14;16.00;;;3.60;;
51288;SDS011;37372;52.294;5.152;2024-02-04T05:10:42;14.50;;;2.88;;
51288;SDS011;37372;52.294;5.152;2024-02-04T05:13:08;12.30;;;2.55;;
51288;SDS011;37372;52.294;5.152;2024-02-04T05:15:33;11.80;;;2.60;;
51288;SDS011;37372;52.294;5.152;2024-02-04T05:17:59;8.88;;;2.60;;
51288;SDS011;37372;52.294;5.152;2024-02-04T05:20:25;17.13;;;2.93;;
51288;SDS011;37372;52.294;5.152;2024-02-04T05:22:50;9.47;;;2.70;;
51288;SDS011;37372;52.294;5.152;2024-02-04T05:25:16;9.80;;;2.30;;
51288;SDS011;37372;52.294;5.152;2024-02-04T05:27:50;12.93;;;2.35;;
51288;SDS011;37372;52.294;5.152;2024-02-04T05:30:16;10.00;;;2.47;;
51288;SDS011;37372;52.294;5.152;2024-02-04T05:32:41;11.00;;;2.42;;
51288;SDS011;37372;52.294;5.152;2024-02-04T05:35:09;9.33;;;2.97;;
51288;SDS011;37372;52.294;5.152;2024-02-04T05:37:35;11.07;;;3.10;;
51288;SDS011;37372;52.294;5.152;2024-02-04T05:40:02;11.57;;;2.85;;
51288;SDS011;37372;52.294;5.152;2024-02-04T05:42:28;12.93;;;2.90;;
51288;SDS011;37372;52.294;5.152;2024-02-04T05:44:53;11.70;;;2.75;;
51288;SDS011;37372;52.294;5.152;2024-02-04T05:47:19;18.10;;;3.30;;
51288;SDS011;37372;52.294;5.152;2024-02-04T05:49:44;11.70;;;3.37;;
51288;SDS011;37372;52.294;5.152;2024-02-04T05:52:09;11.17;;;3.20;;
51288;SDS011;37372;52.294;5.152;2024-02-04T05:54:39;13.63;;;3.28;;
51288;SDS011;37372;52.294;5.152;2024-02-04T05:57:05;13.23;;;3.55;;
51288;SDS011;37372;52.294;5.152;2024-02-04T05:59:30;11.57;;;3.37;;
51288;SDS011;37372;52.294;5.152;2024-02-04T06:01:56;13.50;;;3.70;;
51288;SDS011;37372;52.294;5.152;2024-02-04T06:04:21;12.70;;;3.30;;
51288;SDS011;37372;52.294;5.152;2024-02-04T06:06:47;11.43;;;3.77;;
51288;SDS011;37372;52.294;5.152;2024-02-04T06:09:12;13.80;;;3.60;;
51288;SDS011;37372;52.294;5.152;2024-02-04T06:11:38;13.07;;;3.22;;
51288;SDS011;37372;52.294;5.152;2024-02-04T06:14:04;12.10;;;3.73;;
51288;SDS011;37372;52.294;5.152;2024-02-04T06:16:32;15.00;;;3.63;;
51288;SDS011;37372;52.294;5.152;2024-02-04T06:18:59;20.77;;;4.53;;
51288;SDS011;37372;52.294;5.152;2024-02-04T06:21:24;12.87;;;3.90;;
51288;SDS011;37372;52.294;5.152;2024-02-04T06:23:50;13.00;;;3.77;;
51288;SDS011;37372;52.294;5.152;2024-02-04T06:26:15;9.37;;;3.23;;
51288;SDS011;37372;52.294;5.152;2024-02-04T06:28:50;17.77;;;3.93;;
51288;SDS011;37372;52.294;5.152;2024-02-04T06:31:24;15.95;;;4.03;;
51288;SDS011;37372;52.294;5.152;2024-02-04T06:33:50;11.07;;;3.73;;
51288;SDS011;37372;52.294;5.152;2024-02-04T06:36:16;9.75;;;3.60;;
51288;SDS011;37372;52.294;5.152;2024-02-04T06:38:42;11.77;;;3.80;;
51288;SDS011;37372;52.294;5.152;2024-02-04T06:41:07;14.30;;;3.83;;
51288;SDS011;37372;52.294;5.152;2024-02-04T06:43:36;11.63;;;3.97;;
51288;SDS011;37372;52.294;5.152;2024-02-04T06:46:02;18.30;;;4.35;;
51288;SDS011;37372;52.294;5.152;2024-02-04T06:48:27;14.77;;;4.23;;
51288;SDS011;37372;52.294;5.152;2024-02-04T06:50:53;12.37;;;5.07;;
51288;SDS011;37372;52.294;5.152;2024-02-04T06:53:18;12.77;;;5.37;;
51288;SDS011;37372;52.294;5.152;2024-02-04T06:55:44;17.80;;;5.67;;
51288;SDS011;37372;52.294;5.152;2024-02-04T06:58:09;18.07;;;5.83;;
51288;SDS011;37372;52.294;5.152;2024-02-04T07:00:34;16.90;;;5.88;;
51288;SDS011;37372;52.294;5.152;2024-02-04T07:03:03;18.70;;;7.50;;
51288;SDS011;37372;52.294;5.152;2024-02-04T07:05:29;15.43;;;6.28;;
51288;SDS011;37372;52.294;5.152;2024-02-04T07:07:56;17.33;;;6.80;;
51288;SDS011;37372;52.294;5.152;2024-02-04T07:10:21;17.03;;;6.70;;
51288;SDS011;37372;52.294;5.152;2024-02-04T07:12:49;13.57;;;6.80;;
51288;SDS011;37372;52.294;5.152;2024-02-04T07:15:14;19.75;;;6.93;;
51288;SDS011;37372;52.294;5.152;2024-02-04T07:17:39;23.83;;;7.40;;
51288;SDS011;37372;52.294;5.152;2024-02-04T07:20:05;20.63;;;7.30;;
51288;SDS011;37372;52.294;5.152;2024-02-04T07:22:31;24.17;;;7.53;;
51288;SDS011;37372;52.294;5.152;2024-02-04T07:25:05;20.77;;;8.27;;
51288;SDS011;37372;52.294;5.152;2024-02-04T07:27:32;19.40;;;8.50;;
51288;SDS011;37372;52.294;5.152;2024-02-04T07:29:58;22.92;;;8.02;;
51288;SDS011;37372;52.294;5.152;2024-02-04T07:32:23;20.47;;;7.83;;
51288;SDS011;37372;52.294;5.152;2024-02-04T07:34:49;20.27;;;7.03;;
51288;SDS011;37372;52.294;5.152;2024-02-04T07:37:14;15.93;;;6.05;;
51288;SDS011;37372;52.294;5.152;2024-02-04T07:39:43;15.32;;;5.68;;
51288;SDS011;37372;52.294;5.152;2024-02-04T07:42:12;13.23;;;5.40;;
51288;SDS011;37372;52.294;5.152;2024-02-04T07:44:41;15.07;;;5.50;;
51288;SDS011;37372;52.294;5.152;2024-02-04T07:47:07;15.90;;;4.90;;
51288;SDS011;37372;52.294;5.152;2024-02-04T07:49:32;12.37;;;5.03;;
51288;SDS011;37372;52.294;5.152;2024-02-04T07:52:03;16.00;;;4.45;;
51288;SDS011;37372;52.294;5.152;2024-02-04T07:54:34;10.35;;;4.60;;
51288;SDS011;37372;52.294;5.152;2024-02-04T07:57:02;11.32;;;4.50;;
51288;SDS011;37372;52.294;5.152;2024-02-04T07:59:28;11.70;;;4.57;;
51288;SDS011;37372;52.294;5.152;2024-02-04T08:01:53;13.67;;;3.90;;
51288;SDS011;37372;52.294;5.152;2024-02-04T08:04:19;12.40;;;3.53;;
51288;SDS011;37372;52.294;5.152;2024-02-04T08:06:47;13.13;;;3.95;;
51288;SDS011;37372;52.294;5.152;2024-02-04T08:09:22;13.53;;;4.00;;
51288;SDS011;37372;52.294;5.152;2024-02-04T08:11:48;14.13;;;3.70;;
51288;SDS011;37372;52.294;5.152;2024-02-04T08:14:13;9.30;;;3.50;;
51288;SDS011;37372;52.294;5.152;2024-02-04T08:16:42;11.40;;;3.40;;
51288;SDS011;37372;52.294;5.152;2024-02-04T08:19:08;11.60;;;3.33;;
51288;SDS011;37372;52.294;5.152;2024-02-04T08:21:36;9.63;;;2.92;;
51288;SDS011;37372;52.294;5.152;2024-02-04T08:24:04;9.10;;;3.50;;
51288;SDS011;37372;52.294;5.152;2024-02-04T08:26:33;8.38;;;3.17;;
51288;SDS011;37372;52.294;5.152;2024-02-04T08:28:59;9.77;;;2.97;;
51288;SDS011;37372;52.294;5.152;2024-02-04T08:31:24;9.53;;;3.50;;
51288;SDS011;37372;52.294;5.152;2024-02-04T08:33:50;9.90;;;3.00;;
51288;SDS011;37372;52.294;5.152;2024-02-04T08:36:16;8.70;;;3.35;;
51288;SDS011;37372;52.294;5.152;2024-02-04T08:38:41;7.10;;;2.77;;
51288;SDS011;37372;52.294;5.152;2024-02-04T08:41:10;8.30;;;2.60;;
51288;SDS011;37372;52.294;5.152;2024-02-04T08:43:47;8.77;;;2.40;;
51288;SDS011;37372;52.294;5.152;2024-02-04T08:46:13;6.55;;;2.55;;
51288;SDS011;37372;52.294;5.152;2024-02-04T08:48:38;9.07;;;3.40;;
51288;SDS011;37372;52.294;5.152;2024-02-04T08:51:04;8.83;;;3.40;;
51288;SDS011;37372;52.294;5.152;2024-02-04T08:53:35;11.52;;;3.70;;
51288;SDS011;37372;52.294;5.152;2024-02-04T08:56:01;12.47;;;4.67;;
51288;SDS011;37372;52.294;5.152;2024-02-04T08:58:26;14.77;;;5.00;;
51288;SDS011;37372;52.294;5.152;2024-02-04T09:00:52;15.03;;;5.27;;
51288;SDS011;37372;52.294;5.152;2024-02-04T09:03:17;14.87;;;5.83;;
51288;SDS011;37372;52.294;5.152;2024-02-04T09:05:42;16.23;;;6.57;;
51288;SDS011;37372;52.294;5.152;2024-02-04T09:08:08;17.60;;;5.30;;
51288;SDS011;37372;52.294;5.152;2024-02-04T09:10:33;18.17;;;5.90;;
51288;SDS011;37372;52.294;5.152;2024-02-04T09:12:58;15.73;;;5.03;;
51288;SDS011;37372;52.294;5.152;2024-02-04T09:15:24;11.88;;;4.25;;
51288;SDS011;37372;52.294;5.152;2024-02-04T09:17:49;8.57;;;3.60;;
51288;SDS011;37372;52.294;5.152;2024-02-04T09:20:18;8.90;;;3.60;;
51288;SDS011;37372;52.294;5.152;2024-02-04T09:22:43;13.10;;;3.20;;
51288;SDS011;37372;52.294;5.152;2024-02-04T09:25:09;12.40;;;2.77;;
51288;SDS011;37372;52.294;5.152;2024-02-04T09:27:38;11.55;;;3.60;;
51288;SDS011;37372;52.294;5.152;2024-02-04T09:30:06;14.27;;;2.83;;
51288;SDS011;37372;52.294;5.152;2024-02-04T09:32:41;12.25;;;2.50;;
51288;SDS011;37372;52.294;5.152;2024-02-04T09:35:06;8.90;;;2.77;;
51288;SDS011;37372;52.294;5.152;2024-02-04T09:37:53;8.85;;;2.45;;
51288;SDS011;37372;52.294;5.152;2024-02-04T09:40:19;9.93;;;3.13;;
51288;SDS011;37372;52.294;5.152;2024-02-04T09:42:44;8.37;;;2.63;;
51288;SDS011;37372;52.294;5.152;2024-02-04T09:45:10;10.17;;;2.17;;
51288;SDS011;37372;52.294;5.152;2024-02-04T09:47:41;7.05;;;2.13;;
51288;SDS011;37372;52.294;5.152;2024-02-04T09:50:07;9.35;;;2.50;;
51288;SDS011;37372;52.294;5.152;2024-02-04T09:52:33;7.57;;;2.42;;
51288;SDS011;37372;52.294;5.152;2024-02-04T09:55:07;9.43;;;2.23;;
51288;SDS011;37372;52.294;5.152;2024-02-04T09:57:45;7.10;;;1.98;;
51288;SDS011;37372;52.294;5.152;2024-02-04T10:00:11;11.15;;;2.20;;
51288;SDS011;37372;52.294;5.152;2024-02-04T10:02:42;7.10;;;1.87;;
51288;SDS011;37372;52.294;5.152;2024-02-04T10:05:20;9.55;;;2.00;;
51288;SDS011;37372;52.294;5.152;2024-02-04T10:07:46;4.82;;;1.80;;
51288;SDS011;37372;52.294;5.152;2024-02-04T10:10:11;7.40;;;2.70;;
51288;SDS011;37372;52.294;5.152;2024-02-04T10:12:37;5.53;;;2.33;;
51288;SDS011;37372;52.294;5.152;2024-02-04T10:15:07;9.75;;;2.00;;
51288;SDS011;37372;52.294;5.152;2024-02-04T10:17:33;6.93;;;1.98;;
51288;SDS011;37372;52.294;5.152;2024-02-04T10:19:59;6.30;;;1.57;;
51288;SDS011;37372;52.294;5.152;2024-02-04T10:22:26;11.23;;;1.80;;
51288;SDS011;37372;52.294;5.152;2024-02-04T10:25:04;4.28;;;1.98;;
51288;SDS011;37372;52.294;5.152;2024-02-04T10:27:30;6.47;;;1.50;;
51288;SDS011;37372;52.294;5.152;2024-02-04T10:29:56;8.48;;;1.70;;
51288;SDS011;37372;52.294;5.152;2024-02-04T10:32:22;4.93;;;1.60;;
51288;SDS011;37372;52.294;5.152;2024-02-04T10:34:48;4.87;;;1.40;;
51288;SDS011;37372;52.294;5.152;2024-02-04T10:37:13;2.28;;;1.23;;
51288;SDS011;37372;52.294;5.152;2024-02-04T10:39:41;10.20;;;2.00;;
51288;SDS011;37372;52.294;5.152;2024-02-04T10:42:08;5.25;;;1.45;;
51288;SDS011;37372;52.294;5.152;2024-02-04T10:44:35;7.27;;;1.67;;
51288;SDS011;37372;52.294;5.152;2024-02-04T10:47:03;4.95;;;1.40;;
51288;SDS011;37372;52.294;5.152;2024-02-04T10:49:32;6.43;;;1.50;;
51288;SDS011;37372;52.294;5.152;2024-02-04T10:51:59;4.93;;;1.33;;
51288;SDS011;37372;52.294;5.152;2024-02-04T10:54:29;6.23;;;1.60;;
51288;SDS011;37372;52.294;5.152;2024-02-04T10:56:56;8.93;;;1.55;;
51288;SDS011;37372;52.294;5.152;2024-02-04T10:59:30;7.43;;;1.95;;
51288;SDS011;37372;52.294;5.152;2024-02-04T11:02:00;6.15;;;1.73;;
51288;SDS011;37372;52.294;5.152;2024-02-04T11:04:30;4.65;;;1.70;;
51288;SDS011;37372;52.294;5.152;2024-02-04T11:06:58;4.93;;;1.97;;
51288;SDS011;37372;52.294;5.152;2024-02-04T11:09:26;4.25;;;1.65;;
51288;SDS011;37372;52.294;5.152;2024-02-04T11:11:53;5.53;;;1.60;;
51288;SDS011;37372;52.294;5.152;2024-02-04T11:14:34;3.78;;;1.50;;
51288;SDS011;37372;52.294;5.152;2024-02-04T11:19:58;2.67;;;1.40;;
51288;SDS011;37372;52.294;5.152;2024-02-04T11:22:38;6.03;;;1.70;;
51288;SDS011;37372;52.294;5.152;2024-02-04T11:25:20;4.18;;;1.42;;
51288;SDS011;37372;52.294;5.152;2024-02-04T11:27:50;4.68;;;1.58;;
51288;SDS011;37372;52.294;5.152;2024-02-04T11:30:15;3.20;;;1.40;;
51288;SDS011;37372;52.294;5.152;2024-02-04T11:32:41;3.85;;;1.80;;
51288;SDS011;37372;52.294;5.152;2024-02-04T11:35:07;4.40;;;1.90;;
51288;SDS011;37372;52.294;5.152;2024-02-04T11:37:33;5.05;;;1.80;;
51288;SDS011;37372;52.294;5.152;2024-02-04T11:40:05;6.05;;;2.10;;
51288;SDS011;37372;52.294;5.152;2024-02-04T11:42:34;3.50;;;2.25;;
51288;SDS011;37372;52.294;5.152;2024-02-04T11:45:09;5.13;;;2.30;;
51288;SDS011;37372;52.294;5.152;2024-02-04T11:47:39;8.70;;;2.45;;
51288;SDS011;37372;52.294;5.152;2024-02-04T11:50:25;6.72;;;2.75;;
51288;SDS011;37372;52.294;5.152;2024-02-04T11:53:08;5.55;;;2.80;;
51288;SDS011;37372;52.294;5.152;2024-02-04T11:55:41;10.05;;;3.38;;
51288;SDS011;37372;52.294;5.152;2024-02-04T11:58:07;11.57;;;3.43;;
51288;SDS011;37372;52.294;5.152;2024-02-04T12:00:43;16.10;;;4.20;;
51288;SDS011;37372;52.294;5.152;2024-02-04T12:03:13;11.82;;;3.70;;
51288;SDS011;37372;52.294;5.152;2024-02-04T12:05:38;16.97;;;4.30;;
51288;SDS011;37372;52.294;5.152;2024-02-04T12:08:13;16.00;;;3.97;;
51288;SDS011;37372;52.294;5.152;2024-02-04T12:10:42;12.93;;;3.67;;
51288;SDS011;37372;52.294;5.152;2024-02-04T12:13:15;14.05;;;4.18;;
51288;SDS011;37372;52.294;5.152;2024-02-04T12:15:40;17.00;;;3.53;;
51288;SDS011;37372;52.294;5.152;2024-02-04T12:18:11;19.58;;;3.60;;
51288;SDS011;37372;52.294;5.152;2024-02-04T12:20:45;22.00;;;3.65;;
51288;SDS011;37372;52.294;5.152;2024-02-04T12:23:15;17.83;;;3.92;;
51288;SDS011;37372;52.294;5.152;2024-02-04T12:25:55;20.57;;;3.03;;
51288;SDS011;37372;52.294;5.152;2024-02-04T12:28:26;15.30;;;2.97;;
51288;SDS011;37372;52.294;5.152;2024-02-04T12:30:52;12.50;;;3.55;;
51288;SDS011;37372;52.294;5.152;2024-02-04T12:33:23;15.57;;;2.80;;
51288;SDS011;37372;52.294;5.152;2024-02-04T12:35:52;15.88;;;2.70;;
51288;SDS011;37372;52.294;5.152;2024-02-04T12:38:30;14.10;;;2.70;;
51288;SDS011;37372;52.294;5.152;2024-02-04T12:41:14;14.88;;;2.67;;
51288;SDS011;37372;52.294;5.152;2024-02-04T12:43:42;8.50;;;2.33;;
51288;SDS011;37372;52.294;5.152;2024-02-04T12:46:14;16.80;;;3.05;;
51288;SDS011;37372;52.294;5.152;2024-02-04T12:48:39;14.93;;;3.10;;
51288;SDS011;37372;52.294;5.152;2024-02-04T12:51:05;15.10;;;2.78;;
51288;SDS011;37372;52.294;5.152;2024-02-04T12:53:30;17.63;;;3.03;;
51288;SDS011;37372;52.294;5.152;2024-02-04T12:56:01;12.50;;;2.30;;
51288;SDS011;37372;52.294;5.152;2024-02-04T12:58:27;17.40;;;2.60;;
51288;SDS011;37372;52.294;5.152;2024-02-04T13:00:59;15.17;;;2.63;;
51288;SDS011;37372;52.294;5.152;2024-02-04T13:03:45;14.38;;;2.83;;
51288;SDS011;37372;52.294;5.152;2024-02-04T13:06:15;16.45;;;2.90;;
51288;SDS011;37372;52.294;5.152;2024-02-04T13:08:40;11.93;;;2.70;;
51288;SDS011;37372;52.294;5.152;2024-02-04T13:11:27;10.30;;;2.50;;
51288;SDS011;37372;52.294;5.152;2024-02-04T13:13:52;13.63;;;2.70;;
51288;SDS011;37372;52.294;5.152;2024-02-04T13:16:17;14.17;;;2.67;;
51288;SDS011;37372;52.294;5.152;2024-02-04T13:18:44;10.23;;;2.42;;
51288;SDS011;37372;52.294;5.152;2024-02-04T13:21:27;11.55;;;2.33;;
51288;SDS011;37372;52.294;5.152;2024-02-04T13:24:14;12.90;;;2.42;;
51288;SDS011;37372;52.294;5.152;2024-02-04T13:26:39;14.60;;;2.90;;
51288;SDS011;37372;52.294;5.152;2024-02-04T13:29:11;16.50;;;2.60;;
51288;SDS011;37372;52.294;5.152;2024-02-04T13:31:41;5.93;;;2.17;;
51288;SDS011;37372;52.294;5.152;2024-02-04T13:34:09;11.35;;;2.40;;
51288;SDS011;37372;52.294;5.152;2024-02-04T13:36:38;14.05;;;2.58;;
51288;SDS011;37372;52.294;5.152;2024-02-04T13:39:10;12.43;;;2.38;;
51288;SDS011;37372;52.294;5.152;2024-02-04T13:41:37;11.57;;;2.10;;
51288;SDS011;37372;52.294;5.152;2024-02-04T13:44:05;14.63;;;2.60;;
51288;SDS011;37372;52.294;5.152;2024-02-04T13:46:32;17.00;;;3.17;;
51288;SDS011;37372;52.294;5.152;2024-02-04T13:48:58;11.80;;;2.28;;
51288;SDS011;37372;52.294;5.152;2024-02-04T13:51:30;11.02;;;2.55;;
51288;SDS011;37372;52.294;5.152;2024-02-04T13:53:58;11.33;;;2.37;;
51288;SDS011;37372;52.294;5.152;2024-02-04T13:56:24;11.35;;;2.33;;
51288;SDS011;37372;52.294;5.152;2024-02-04T13:58:50;16.63;;;2.80;;
51288;SDS011;37372;52.294;5.152;2024-02-04T14:01:15;15.50;;;2.90;;
51288;SDS011;37372;52.294;5.152;2024-02-04T14:03:40;11.00;;;2.90;;
51288;SDS011;37372;52.294;5.152;2024-02-04T14:06:09;11.70;;;2.60;;
51288;SDS011;37372;52.294;5.152;2024-02-04T14:08:37;14.53;;;2.30;;
51288;SDS011;37372;52.294;5.152;2024-02-04T14:11:03;10.38;;;2.30;;
51288;SDS011;37372;52.294;5.152;2024-02-04T14:13:29;7.53;;;2.22;;
51288;SDS011;37372;52.294;5.152;2024-02-04T14:16:00;9.93;;;2.40;;
51288;SDS011;37372;52.294;5.152;2024-02-04T14:18:25;11.07;;;2.10;;
51288;SDS011;37372;52.294;5.152;2024-02-04T14:20:51;6.30;;;2.07;;
51288;SDS011;37372;52.294;5.152;2024-02-04T14:23:17;7.97;;;2.20;;
51288;SDS011;37372;52.294;5.152;2024-02-04T14:25:42;7.93;;;2.60;;
51288;SDS011;37372;52.294;5.152;2024-02-04T14:28:07;10.50;;;2.30;;
51288;SDS011;37372;52.294;5.152;2024-02-04T14:30:33;14.57;;;3.10;;
51288;SDS011;37372;52.294;5.152;2024-02-04T14:32:58;7.67;;;2.00;;
51288;SDS011;37372;52.294;5.152;2024-02-04T14:35:23;6.27;;;2.00;;
51288;SDS011;37372;52.294;5.152;2024-02-04T14:37:49;10.13;;;1.80;;
51288;SDS011;37372;52.294;5.152;2024-02-04T14:40:14;6.73;;;2.00;;
51288;SDS011;37372;52.294;5.152;2024-02-04T14:42:39;6.43;;;2.23;;
51288;SDS011;37372;52.294;5.152;2024-02-04T14:45:05;7.63;;;1.90;;
51288;SDS011;37372;52.294;5.152;2024-02-04T14:47:31;7.88;;;2.00;;